Time;durP1;ratioP1;P1;durP2;ratioP2;P2;SDS_P1;SDS_P2;PMS_P1;PMS_P2;Temp;Humidity;BMP_temperature;BMP_pressure;BME280_temperature;BME280_humidity;BME280_pressure;Samples;Min_cycle;Max_cycle;Signal;HPM_P1;HPM_P2
2022/09/11 00:00:12;;;;;;;18.67;16.67;;;14.90;99.90;;;;;;5093064;28;20043;-62
2022/09/11 00:02:37;;;;;;;21.30;15.95;;;14.80;99.90;;;;;;5093902;28;20118;-62
2022/09/11 00:05:03;;;;;;;17.42;15.55;;;14.80;99.90;;;;;;5092562;28;20123;-62
2022/09/11 00:07:29;;;;;;;18.02;15.88;;;14.70;99.90;;;;;;5092556;28;20070;-62
2022/09/11 00:09:55;;;;;;;18.02;15.85;;;14.70;99.90;;;;;;5093818;28;20094;-62
2022/09/11 00:12:21;;;;;;;17.92;15.25;;;14.60;99.90;;;;;;5094363;28;20047;-62
2022/09/11 00:14:46;;;;;;;18.17;15.25;;;14.60;99.90;;;;;;5092992;28;20115;-62
2022/09/11 00:17:14;;;;;;;17.40;14.68;;;14.60;99.90;;;;;;5094363;28;20388;-62
2022/09/11 00:19:40;;;;;;;18.70;16.38;;;14.60;99.90;;;;;;5094208;28;20396;-62
2022/09/11 00:22:06;;;;;;;16.88;15.07;;;14.50;99.90;;;;;;5112723;28;20102;-62
2022/09/11 00:24:32;;;;;;;18.40;15.30;;;14.50;99.90;;;;;;5096171;28;20140;-62
2022/09/11 00:26:57;;;;;;;15.82;13.48;;;14.40;99.90;;;;;;5095792;28;20112;-62
2022/09/11 00:29:23;;;;;;;16.20;14.50;;;14.50;99.90;;;;;;5095251;28;20040;-62
2022/09/11 00:31:49;;;;;;;18.67;16.17;;;14.40;99.90;;;;;;5078638;28;20070;-62
2022/09/11 00:34:14;;;;;;;17.23;15.02;;;14.40;99.90;;;;;;5114031;28;20118;-62
2022/09/11 00:36:40;;;;;;;20.10;16.65;;;14.30;99.90;;;;;;5095239;28;20487;-62
2022/09/11 00:39:06;;;;;;;19.70;15.93;;;14.30;99.90;;;;;;5095149;28;20040;-62
2022/09/11 00:41:38;;;;;;;20.25;16.35;;;14.30;99.90;;;;;;5095941;28;20079;-62
2022/09/11 00:44:06;;;;;;;19.25;16.15;;;14.20;99.90;;;;;;5094479;28;20670;-62
2022/09/11 00:46:39;;;;;;;20.45;16.92;;;14.20;99.90;;;;;;5113941;28;20110;-62
2022/09/11 00:49:16;;;;;;;17.90;15.85;;;14.20;99.90;;;;;;5078207;28;20130;-62
2022/09/11 00:51:44;;;;;;;16.35;14.13;;;14.20;99.90;;;;;;5078416;28;20045;-62
2022/09/11 00:54:12;;;;;;;17.55;15.65;;;14.20;99.90;;;;;;5095392;28;20488;-62
2022/09/11 00:56:40;;;;;;;18.23;16.35;;;14.10;99.90;;;;;;5113062;28;20035;-62
2022/09/11 00:59:07;;;;;;;18.42;16.10;;;14.10;99.90;;;;;;5113210;28;20071;-62
2022/09/11 01:01:33;;;;;;;16.13;13.90;;;14.10;99.90;;;;;;5078486;28;20118;-62
2022/09/11 01:04:04;;;;;;;16.90;12.63;;;14.10;99.90;;;;;;5112495;28;20114;-62
2022/09/11 01:06:31;;;;;;;16.88;13.43;;;14.00;99.90;;;;;;5095404;28;20036;-62
2022/09/11 01:08:58;;;;;;;16.05;13.57;;;14.00;99.90;;;;;;5094880;28;20051;-62
2022/09/11 01:11:46;;;;;;;14.45;12.73;;;14.00;99.90;;;;;;5112795;28;20042;-62
2022/09/11 01:14:38;;;;;;;15.57;13.98;;;13.90;99.90;;;;;;5113254;28;20123;-62
2022/09/11 01:17:19;;;;;;;18.27;14.88;;;13.90;99.90;;;;;;5067174;28;20047;-62
2022/09/11 01:19:55;;;;;;;16.95;13.98;;;13.90;99.90;;;;;;5093982;28;20043;-62
2022/09/11 01:22:48;;;;;;;15.50;13.32;;;13.80;99.90;;;;;;5095268;28;20039;-62
2022/09/11 01:25:22;;;;;;;19.17;15.05;;;13.80;99.90;;;;;;5094328;28;20043;-62
2022/09/11 01:27:53;;;;;;;18.20;13.93;;;13.80;99.90;;;;;;5112752;28;20044;-62
2022/09/11 01:30:27;;;;;;;14.80;13.13;;;13.80;99.90;;;;;;5078148;28;20286;-62
2022/09/11 01:33:14;;;;;;;15.75;13.95;;;13.80;99.90;;;;;;5112197;28;20078;-62
2022/09/11 01:36:02;;;;;;;16.35;13.40;;;13.70;99.90;;;;;;5113342;28;20445;-62
2022/09/11 01:38:45;;;;;;;18.77;14.63;;;13.70;99.90;;;;;;5113029;28;20057;-62
2022/09/11 01:41:28;;;;;;;17.27;15.45;;;13.70;99.90;;;;;;5113272;28;20123;-62
2022/09/11 01:43:57;;;;;;;18.13;15.07;;;13.60;99.90;;;;;;5094772;28;20508;-62
2022/09/11 01:46:26;;;;;;;16.73;15.02;;;13.60;99.90;;;;;;5094319;28;20042;-62
2022/09/11 01:49:20;;;;;;;17.27;13.90;;;13.60;99.90;;;;;;5112434;28;20040;-62
2022/09/11 01:51:51;;;;;;;14.38;12.60;;;13.60;99.90;;;;;;5073221;28;20063;-62
2022/09/11 01:54:21;;;;;;;18.10;13.98;;;13.60;99.90;;;;;;5093978;28;20122;-62
2022/09/11 01:57:12;;;;;;;16.45;13.77;;;13.60;99.90;;;;;;5094139;28;20044;-62
2022/09/11 01:59:49;;;;;;;23.60;11.98;;;13.60;99.90;;;;;;5112571;28;20140;-62
2022/09/11 02:02:23;;;;;;;12.00;10.48;;;13.60;99.90;;;;;;5112440;28;20044;-62
2022/09/11 02:05:08;;;;;;;15.63;12.63;;;13.60;99.90;;;;;;5112475;28;20085;-62
2022/09/11 02:07:41;;;;;;;16.77;13.68;;;13.60;99.90;;;;;;5076735;28;20047;-62
2022/09/11 02:10:13;;;;;;;14.30;11.70;;;13.50;99.90;;;;;;5093899;28;20165;-62
2022/09/11 02:13:01;;;;;;;15.73;13.68;;;13.60;99.90;;;;;;5094825;28;20442;-62
2022/09/11 02:15:33;;;;;;;14.65;12.02;;;13.50;99.90;;;;;;5093880;28;20028;-62
2022/09/11 02:18:09;;;;;;;17.45;13.40;;;13.50;99.90;;;;;;5094185;28;20040;-62
2022/09/11 02:20:35;;;;;;;12.60;11.07;;;13.50;99.90;;;;;;5112025;28;20066;-62
2022/09/11 02:23:01;;;;;;;15.70;11.00;;;13.50;99.90;;;;;;5111683;28;20039;-62
2022/09/11 02:25:27;;;;;;;16.42;11.82;;;13.50;99.90;;;;;;5096407;28;20074;-62
2022/09/11 02:27:53;;;;;;;12.73;11.23;;;13.40;99.90;;;;;;5097643;28;20087;-62
2022/09/11 02:30:19;;;;;;;12.63;10.18;;;13.40;99.90;;;;;;5098389;28;20031;-62
2022/09/11 02:32:46;;;;;;;12.50;10.95;;;13.40;99.90;;;;;;5098033;28;20488;-62
2022/09/11 02:35:13;;;;;;;11.30;9.70;;;13.30;99.90;;;;;;5115700;28;20107;-62
2022/09/11 02:37:45;;;;;;;13.77;11.93;;;13.30;99.90;;;;;;5098549;28;20071;-61
2022/09/11 02:40:18;;;;;;;14.63;11.63;;;13.30;99.90;;;;;;5098720;28;20052;-62
2022/09/11 02:43:13;;;;;;;16.02;12.82;;;13.30;99.90;;;;;;5115832;28;20035;-62
2022/09/11 02:45:53;;;;;;;13.27;11.48;;;13.30;99.90;;;;;;5098455;28;20039;-62
2022/09/11 02:48:40;;;;;;;14.95;12.35;;;13.30;99.90;;;;;;5116167;28;20044;-62
2022/09/11 02:51:46;;;;;;;11.30;9.25;;;13.30;99.90;;;;;;5097129;28;20046;-62
2022/09/11 02:54:26;;;;;;;12.73;9.65;;;13.30;99.90;;;;;;5066028;28;20400;-62
2022/09/11 02:57:00;;;;;;;14.15;11.43;;;13.30;99.90;;;;;;5114925;28;20040;-62
2022/09/11 02:59:32;;;;;;;13.25;11.15;;;13.20;99.90;;;;;;5098141;28;20036;-62
2022/09/11 03:02:00;;;;;;;13.77;11.02;;;13.20;99.90;;;;;;5115642;28;20042;-62
2022/09/11 03:04:28;;;;;;;17.00;14.30;;;13.20;99.90;;;;;;5097265;28;20165;-62
2022/09/11 03:06:55;;;;;;;11.07;9.88;;;13.20;99.90;;;;;;5115512;28;20044;-62
2022/09/11 03:09:21;;;;;;;12.90;10.73;;;13.10;99.90;;;;;;5097583;28;20031;-62
2022/09/11 03:11:47;;;;;;;10.93;8.70;;;13.10;99.90;;;;;;5096615;28;20036;-62
2022/09/11 03:14:13;;;;;;;12.45;10.35;;;13.10;99.90;;;;;;5116016;28;20035;-62
2022/09/11 03:16:40;;;;;;;11.13;9.18;;;13.10;99.90;;;;;;5097180;28;20047;-62
2022/09/11 03:19:06;;;;;;;11.88;10.02;;;13.20;99.90;;;;;;5096323;28;20071;-62
2022/09/11 03:21:33;;;;;;;13.93;10.90;;;13.20;99.90;;;;;;5114825;28;20048;-62
2022/09/11 03:24:00;;;;;;;9.90;8.45;;;13.20;99.90;;;;;;5095415;28;20122;-62
2022/09/11 03:26:26;;;;;;;14.27;11.32;;;13.20;99.90;;;;;;5114087;28;20111;-62
2022/09/11 03:28:53;;;;;;;13.32;10.25;;;13.20;99.90;;;;;;5095493;28;20055;-62
2022/09/11 03:31:19;;;;;;;11.20;9.68;;;13.10;99.90;;;;;;5095447;28;20050;-62
2022/09/11 03:33:44;;;;;;;11.65;8.73;;;13.10;99.90;;;;;;5095608;28;20044;-62
2022/09/11 03:36:12;;;;;;;12.13;10.18;;;13.10;99.90;;;;;;5113827;28;20047;-62
2022/09/11 03:38:37;;;;;;;13.07;10.98;;;13.10;99.90;;;;;;5113650;28;20412;-62
2022/09/11 03:41:04;;;;;;;13.07;10.45;;;13.10;99.90;;;;;;5095527;28;20092;-62
2022/09/11 03:43:30;;;;;;;12.60;10.35;;;13.00;99.90;;;;;;5114252;28;20051;-62
2022/09/11 03:45:56;;;;;;;13.20;10.95;;;13.10;99.90;;;;;;5077569;28;20431;-62
2022/09/11 03:48:24;;;;;;;13.98;12.45;;;13.00;99.90;;;;;;5095871;28;20047;-62
2022/09/11 03:50:49;;;;;;;14.80;11.75;;;13.00;99.90;;;;;;5113709;28;20036;-62
2022/09/11 03:53:15;;;;;;;11.50;10.20;;;13.00;99.90;;;;;;5113439;28;20503;-62
2022/09/11 03:55:41;;;;;;;11.07;8.82;;;13.00;99.90;;;;;;5114070;28;20043;-62
2022/09/11 03:58:08;;;;;;;10.70;8.77;;;13.00;99.90;;;;;;5113483;28;20039;-62
2022/09/11 04:00:35;;;;;;;13.00;9.05;;;13.00;99.90;;;;;;5095087;28;20122;-62
2022/09/11 04:03:01;;;;;;;11.68;9.15;;;13.00;99.90;;;;;;5113218;28;20036;-62
2022/09/11 04:05:27;;;;;;;14.52;10.45;;;13.00;99.90;;;;;;5095402;28;20498;-61
2022/09/11 04:07:53;;;;;;;9.15;7.95;;;12.90;99.90;;;;;;5094620;28;20047;-62
2022/09/11 04:10:20;;;;;;;11.52;9.60;;;12.90;99.90;;;;;;5114026;28;20043;-62
2022/09/11 04:12:48;;;;;;;11.88;9.70;;;12.90;99.90;;;;;;5112910;28;20396;-62
2022/09/11 04:15:14;;;;;;;10.77;8.98;;;12.80;99.90;;;;;;5112940;28;20076;-62
2022/09/11 04:17:40;;;;;;;10.00;8.32;;;12.80;99.90;;;;;;5095386;28;20047;-62
2022/09/11 04:20:06;;;;;;;12.13;9.65;;;12.80;99.90;;;;;;5039120;28;1091328;-62
2022/09/11 04:22:32;;;;;;;10.52;7.82;;;12.80;99.90;;;;;;5095876;28;20544;-62
2022/09/11 04:24:59;;;;;;;11.35;8.98;;;12.80;99.90;;;;;;5096116;28;20122;-62
2022/09/11 04:27:26;;;;;;;11.63;9.07;;;12.80;99.90;;;;;;5079348;28;20420;-62
2022/09/11 04:29:51;;;;;;;11.60;8.63;;;12.80;99.90;;;;;;5113135;28;20613;-62
2022/09/11 04:32:17;;;;;;;10.30;7.80;;;12.70;99.90;;;;;;5096396;28;20123;-61
2022/09/11 04:34:43;;;;;;;10.90;9.20;;;12.70;99.90;;;;;;5113733;28;20590;-62
2022/09/11 04:37:10;;;;;;;10.73;8.48;;;12.70;99.90;;;;;;5095655;28;20403;-62
2022/09/11 04:39:36;;;;;;;11.50;8.50;;;12.70;99.90;;;;;;5096215;28;20043;-62
2022/09/11 04:42:03;;;;;;;9.73;8.73;;;12.60;99.90;;;;;;5112780;28;20499;-62
2022/09/11 04:44:28;;;;;;;12.07;8.25;;;12.60;99.90;;;;;;5095794;28;20044;-62
2022/09/11 04:46:55;;;;;;;13.25;8.50;;;12.60;99.90;;;;;;5094734;28;20048;-62
2022/09/11 04:49:22;;;;;;;10.50;8.32;;;12.60;99.90;;;;;;5094727;28;20039;-62
2022/09/11 04:51:47;;;;;;;12.25;8.18;;;12.60;99.90;;;;;;5078262;28;20032;-62
2022/09/11 04:54:15;;;;;;;11.75;8.27;;;12.50;99.90;;;;;;5078912;28;20097;-62
2022/09/11 04:56:41;;;;;;;13.18;8.20;;;12.50;99.90;;;;;;5113099;28;20035;-62
2022/09/11 04:59:12;;;;;;;11.73;8.02;;;12.50;99.90;;;;;;5095302;28;20038;-62
2022/09/11 05:01:38;;;;;;;12.13;9.05;;;12.50;99.90;;;;;;5113675;28;20050;-62
2022/09/11 05:04:05;;;;;;;12.27;10.32;;;12.50;99.90;;;;;;5094494;28;20051;-61
2022/09/11 05:06:30;;;;;;;12.95;10.60;;;12.50;99.90;;;;;;5113932;28;20042;-62
2022/09/11 05:09:02;;;;;;;14.23;10.00;;;12.40;99.90;;;;;;5094482;28;20122;-62
2022/09/11 05:11:29;;;;;;;12.32;8.82;;;12.50;99.90;;;;;;5078177;28;20046;-62
2022/09/11 05:13:57;;;;;;;14.95;8.98;;;12.50;99.90;;;;;;5113005;28;20040;-62
2022/09/11 05:16:24;;;;;;;14.23;10.15;;;12.50;99.90;;;;;;5095089;28;20044;-62
2022/09/11 05:18:51;;;;;;;15.45;8.60;;;12.50;99.90;;;;;;5112502;28;20180;-62
2022/09/11 05:21:18;;;;;;;11.57;8.57;;;12.50;99.90;;;;;;5095091;28;20063;-62
2022/09/11 05:23:47;;;;;;;11.00;7.75;;;12.50;99.90;;;;;;5113300;28;20045;-62
2022/09/11 05:26:21;;;;;;;9.95;8.13;;;12.60;99.90;;;;;;5095014;28;20050;-62
2022/09/11 05:28:47;;;;;;;9.38;7.18;;;12.60;99.90;;;;;;5112844;28;20384;-61
2022/09/11 05:31:15;;;;;;;14.60;8.90;;;12.70;99.90;;;;;;5094488;28;20036;-61
2022/09/11 05:33:45;;;;;;;13.25;6.63;;;12.70;99.90;;;;;;5113250;28;20161;-62
2022/09/11 05:36:12;;;;;;;10.13;7.38;;;12.70;99.90;;;;;;5113317;28;20433;-62
2022/09/11 05:38:38;;;;;;;9.45;7.22;;;12.70;99.90;;;;;;5094154;28;20043;-62
2022/09/11 05:41:10;;;;;;;9.65;8.13;;;12.70;99.90;;;;;;5094300;28;20050;-62
2022/09/11 05:43:36;;;;;;;15.05;10.20;;;12.70;99.90;;;;;;5094805;28;20083;-62
2022/09/11 05:46:03;;;;;;;10.93;8.02;;;12.80;99.90;;;;;;5093783;28;20054;-62
2022/09/11 05:48:30;;;;;;;10.88;8.70;;;12.80;99.90;;;;;;5112903;28;20515;-62
2022/09/11 05:51:01;;;;;;;12.20;8.93;;;12.80;99.90;;;;;;5094087;28;20082;-62
2022/09/11 05:53:30;;;;;;;11.73;8.70;;;12.90;99.90;;;;;;5094169;28;20122;-62
2022/09/11 05:55:56;;;;;;;10.32;8.63;;;12.90;99.90;;;;;;5077598;28;20062;-61
2022/09/11 05:58:22;;;;;;;11.18;8.88;;;13.00;99.90;;;;;;5112458;28;20046;-62
2022/09/11 06:00:48;;;;;;;13.65;8.43;;;13.00;99.90;;;;;;5093519;28;20047;-62
2022/09/11 06:03:15;;;;;;;9.77;7.65;;;13.10;99.90;;;;;;5094609;28;20039;-62
2022/09/11 06:05:41;;;;;;;9.48;7.28;;;13.10;99.90;;;;;;5112379;28;20047;-62
2022/09/11 06:08:08;;;;;;;11.57;8.07;;;13.20;99.90;;;;;;5111657;28;20395;-62
2022/09/11 06:10:35;;;;;;;12.68;8.50;;;13.30;99.90;;;;;;5077898;28;20103;-62
2022/09/11 06:13:01;;;;;;;12.60;9.30;;;13.30;99.90;;;;;;5093767;28;20073;-62
2022/09/11 06:15:27;;;;;;;11.77;10.48;;;13.40;99.90;;;;;;5112308;28;20496;-62
2022/09/11 06:17:53;;;;;;;11.88;8.00;;;13.50;99.90;;;;;;5112044;28;20040;-62
2022/09/11 06:20:19;;;;;;;9.05;7.40;;;13.50;99.90;;;;;;5111546;28;20051;-62
2022/09/11 06:22:44;;;;;;;14.55;10.50;;;13.60;99.90;;;;;;5093976;28;20108;-62
2022/09/11 06:25:10;;;;;;;13.88;11.07;;;13.70;99.90;;;;;;5094293;28;20036;-62
2022/09/11 06:27:36;;;;;;;12.75;10.90;;;13.70;99.90;;;;;;5093612;28;20035;-62
2022/09/11 06:30:01;;;;;;;13.65;10.93;;;13.90;99.90;;;;;;5093787;28;20042;-62
2022/09/11 06:32:27;;;;;;;16.48;12.65;;;14.00;99.90;;;;;;5094299;28;20040;-62
2022/09/11 06:34:53;;;;;;;15.65;12.25;;;14.10;99.90;;;;;;5092869;28;20077;-62
2022/09/11 06:37:19;;;;;;;15.23;12.88;;;14.20;99.90;;;;;;5094497;28;20118;-61
2022/09/11 06:39:50;;;;;;;14.80;12.77;;;14.30;99.90;;;;;;5093812;28;20047;-62
2022/09/11 06:42:17;;;;;;;17.35;12.25;;;14.30;99.90;;;;;;5093725;28;20051;-62
2022/09/11 06:44:43;;;;;;;16.77;11.82;;;14.40;99.90;;;;;;5094230;28;20123;-62
2022/09/11 06:47:08;;;;;;;20.23;11.75;;;14.50;99.90;;;;;;5093374;28;20127;-62
2022/09/11 06:49:34;;;;;;;15.32;12.52;;;14.60;99.90;;;;;;5093754;28;20039;-62
2022/09/11 06:52:00;;;;;;;16.88;12.45;;;14.60;99.90;;;;;;5094007;28;20479;-62
2022/09/11 06:54:25;;;;;;;14.27;11.65;;;14.80;99.90;;;;;;5093961;28;20479;-62
2022/09/11 06:56:51;;;;;;;14.30;11.10;;;14.90;99.90;;;;;;5111030;28;20032;-62
2022/09/11 06:59:17;;;;;;;13.35;11.60;;;15.00;99.90;;;;;;5093648;28;20083;-62
2022/09/11 07:01:43;;;;;;;12.32;10.88;;;15.10;99.90;;;;;;5119609;28;20035;-63
2022/09/11 07:04:09;;;;;;;16.88;13.15;;;15.20;99.90;;;;;;5111400;28;20106;-61
2022/09/11 07:06:37;;;;;;;15.88;12.07;;;15.30;99.90;;;;;;5112141;28;20054;-62
2022/09/11 07:09:02;;;;;;;17.20;13.85;;;15.40;99.90;;;;;;5075735;28;20043;-61
2022/09/11 07:11:33;;;;;;;15.57;11.52;;;15.50;99.90;;;;;;5095137;28;20376;-61
2022/09/11 07:14:04;;;;;;;14.13;11.02;;;15.60;99.90;;;;;;5097319;28;20039;-61
2022/09/11 07:16:31;;;;;;;13.70;10.75;;;15.70;99.90;;;;;;5096202;27;20440;-61
2022/09/11 07:18:57;;;;;;;12.80;10.43;;;15.80;99.90;;;;;;5098543;28;20048;-61
2022/09/11 07:21:25;;;;;;;14.00;11.02;;;15.80;99.90;;;;;;5103211;28;20730;-61
2022/09/11 07:23:54;;;;;;;13.02;9.45;;;15.90;99.90;;;;;;5106029;28;20092;-61
2022/09/11 07:26:21;;;;;;;13.02;10.75;;;16.00;99.90;;;;;;5076391;28;20097;-61
2022/09/11 07:28:51;;;;;;;10.30;8.88;;;16.00;99.90;;;;;;5107779;28;20126;-61
2022/09/11 07:31:22;;;;;;;13.63;9.63;;;16.10;99.90;;;;;;5094841;27;20101;-61
2022/09/11 07:33:49;;;;;;;11.45;9.77;;;16.20;99.90;;;;;;5101243;28;20128;-61
2022/09/11 07:36:17;;;;;;;11.20;10.02;;;16.30;99.90;;;;;;5094781;28;20173;-61
2022/09/11 07:38:45;;;;;;;11.90;9.82;;;16.40;99.90;;;;;;5094421;28;20043;-61
2022/09/11 07:41:12;;;;;;;14.70;10.07;;;16.50;99.90;;;;;;5112923;28;20386;-61
2022/09/11 07:43:47;;;;;;;12.45;9.77;;;16.60;99.90;;;;;;5094642;28;20052;-61
2022/09/11 07:46:13;;;;;;;13.98;9.98;;;16.70;99.90;;;;;;5078187;27;20116;-61
2022/09/11 07:48:41;;;;;;;11.48;9.18;;;16.80;99.90;;;;;;5094434;28;20084;-61
2022/09/11 07:51:09;;;;;;;10.13;8.23;;;16.90;99.90;;;;;;5098585;28;20488;-61
2022/09/11 07:53:40;;;;;;;11.43;9.05;;;17.00;99.90;;;;;;5093087;28;20383;-60
2022/09/11 07:56:11;;;;;;;9.55;8.25;;;17.00;99.90;;;;;;5087898;28;20173;-61
2022/09/11 07:58:39;;;;;;;9.70;8.00;;;17.20;99.90;;;;;;5093307;28;20095;-61
2022/09/11 08:01:16;;;;;;;9.88;7.35;;;17.20;99.90;;;;;;5076334;27;20058;-61
2022/09/11 08:03:43;;;;;;;10.55;6.97;;;17.30;99.90;;;;;;5090840;28;20110;-61
2022/09/11 08:06:14;;;;;;;8.38;6.07;;;17.40;99.90;;;;;;5088898;27;20121;-61
2022/09/11 08:08:41;;;;;;;8.65;6.40;;;17.40;99.90;;;;;;5088447;28;20075;-61
2022/09/11 08:11:10;;;;;;;9.52;6.85;;;17.50;99.90;;;;;;5104350;27;20047;-61
2022/09/11 08:13:36;;;;;;;7.25;5.00;;;17.60;99.90;;;;;;5090551;28;20044;-61
2022/09/11 08:16:02;;;;;;;6.20;3.78;;;17.70;99.90;;;;;;5092592;28;20046;-61
2022/09/11 08:18:29;;;;;;;6.03;4.25;;;17.70;99.90;;;;;;5109913;28;20040;-60
2022/09/11 08:21:05;;;;;;;7.18;4.68;;;17.80;99.90;;;;;;5110807;28;20560;-61
2022/09/11 08:23:31;;;;;;;8.65;4.68;;;17.90;99.90;;;;;;5075894;28;20411;-61
2022/09/11 08:26:08;;;;;;;7.40;4.60;;;17.90;99.90;;;;;;5064699;27;20051;-61
2022/09/11 08:28:35;;;;;;;7.53;5.38;;;18.00;99.90;;;;;;5100065;27;20043;-61
2022/09/11 08:31:01;;;;;;;8.60;4.43;;;18.00;99.90;;;;;;5111509;28;20106;-61
2022/09/11 08:33:28;;;;;;;6.72;4.05;;;18.10;99.90;;;;;;5076426;28;20122;-61
2022/09/11 08:35:54;;;;;;;7.20;3.83;;;18.10;99.90;;;;;;5097107;27;20042;-61
2022/09/11 08:38:19;;;;;;;6.13;3.72;;;18.20;99.90;;;;;;5132666;27;20047;-62
2022/09/11 08:40:46;;;;;;;6.68;3.20;;;18.20;99.90;;;;;;5096069;27;20406;-61
2022/09/11 08:43:26;;;;;;;6.22;3.47;;;18.20;99.90;;;;;;5119484;27;20071;-61
2022/09/11 08:45:58;;;;;;;7.55;3.55;;;18.20;99.90;;;;;;5092603;28;20070;-62
2022/09/11 08:48:46;;;;;;;8.15;3.50;;;18.30;99.90;;;;;;5092481;28;20429;-61
2022/09/11 08:51:15;;;;;;;6.03;3.53;;;18.40;99.90;;;;;;5093193;28;20092;-61
2022/09/11 08:53:41;;;;;;;6.45;3.42;;;18.50;99.90;;;;;;5092803;28;20114;-61
2022/09/11 08:56:21;;;;;;;6.05;2.90;;;18.50;99.90;;;;;;5100570;27;20568;-63
2022/09/11 08:58:59;;;;;;;5.82;3.28;;;18.70;99.90;;;;;;5097073;28;20051;-63
2022/09/11 09:01:46;;;;;;;7.38;3.40;;;18.80;99.90;;;;;;5081600;28;20411;-65
2022/09/11 09:04:23;;;;;;;7.32;3.63;;;18.80;99.90;;;;;;5116247;27;20046;-62
2022/09/11 09:06:57;;;;;;;6.85;3.38;;;18.90;99.90;;;;;;5103998;28;20443;-61
2022/09/11 09:10:03;;;;;;;7.50;3.50;;;19.00;99.90;;;;;;5080700;28;20066;-62
2022/09/11 09:12:32;;;;;;;6.82;3.67;;;19.10;99.90;;;;;;5048823;28;20052;-65
2022/09/11 09:15:25;;;;;;;10.18;4.30;;;19.20;99.90;;;;;;5103808;28;20051;-65
2022/09/11 09:17:59;;;;;;;7.00;3.10;;;19.20;99.90;;;;;;5074841;28;20040;-65
2022/09/11 09:20:30;;;;;;;9.82;4.20;;;19.20;99.90;;;;;;5074767;28;20095;-64
2022/09/11 09:23:22;;;;;;;8.65;4.18;;;19.20;99.90;;;;;;5074319;28;20056;-64
2022/09/11 09:25:51;;;;;;;8.35;3.95;;;19.30;99.90;;;;;;5074720;28;20036;-64
2022/09/11 09:28:26;;;;;;;9.05;4.75;;;19.20;99.90;;;;;;5074697;28;20093;-64
2022/09/11 09:31:02;;;;;;;8.00;4.00;;;19.10;99.90;;;;;;5073869;28;20036;-64
2022/09/11 09:33:39;;;;;;;6.30;3.33;;;19.10;99.90;;;;;;5058232;28;20475;-64
2022/09/11 09:36:23;;;;;;;6.47;3.85;;;19.00;99.90;;;;;;5092096;28;20581;-64
2022/09/11 09:38:52;;;;;;;8.68;3.10;;;19.00;99.90;;;;;;5073848;28;20047;-64
2022/09/11 09:41:52;;;;;;;5.63;3.67;;;19.10;99.90;;;;;;5058100;28;20118;-64
2022/09/11 09:44:18;;;;;;;9.93;4.07;;;19.10;99.90;;;;;;5074233;28;20039;-64
2022/09/11 09:46:47;;;;;;;10.70;4.63;;;19.10;99.90;;;;;;5074699;28;20534;-64
2022/09/11 09:49:22;;;;;;;7.07;4.05;;;19.10;99.90;;;;;;5074485;28;20039;-64
2022/09/11 09:51:50;;;;;;;6.55;3.80;;;19.10;99.90;;;;;;5073922;28;20043;-64
2022/09/11 09:54:18;;;;;;;6.35;3.53;;;19.10;99.90;;;;;;5092682;28;20044;-64
2022/09/11 09:56:55;;;;;;;5.93;3.60;;;19.10;99.90;;;;;;5074276;28;20036;-64
2022/09/11 09:59:30;;;;;;;8.85;3.05;;;19.10;99.90;;;;;;5073931;28;20120;-64
2022/09/11 10:01:56;;;;;;;6.63;3.65;;;19.10;99.90;;;;;;5057471;28;20051;-64
2022/09/11 10:04:25;;;;;;;7.00;3.95;;;19.10;99.90;;;;;;5074329;28;20039;-64
2022/09/11 10:07:03;;;;;;;10.95;5.05;;;19.10;99.90;;;;;;5091635;28;20112;-64
2022/09/11 10:09:29;;;;;;;7.75;4.50;;;19.10;99.90;;;;;;5074607;28;20509;-64
2022/09/11 10:12:11;;;;;;;7.00;3.80;;;19.10;99.90;;;;;;5073857;28;20063;-64
2022/09/11 10:14:44;;;;;;;7.03;4.07;;;19.10;99.90;;;;;;5074331;28;20552;-64
2022/09/11 10:17:28;;;;;;;7.90;3.83;;;19.00;99.90;;;;;;5057662;28;20032;-64
2022/09/11 10:19:56;;;;;;;5.35;3.15;;;19.10;99.90;;;;;;5072853;28;20047;-64
2022/09/11 10:22:31;;;;;;;6.32;3.22;;;19.10;99.90;;;;;;5092429;28;20036;-64
2022/09/11 10:25:09;;;;;;;6.38;2.70;;;19.20;99.90;;;;;;5073585;28;20040;-64
2022/09/11 10:27:55;;;;;;;5.18;2.40;;;19.30;99.90;;;;;;5092138;28;20133;-64
2022/09/11 10:30:34;;;;;;;4.57;2.40;;;19.40;99.90;;;;;;5074261;28;20040;-64
2022/09/11 10:33:35;;;;;;;4.80;2.10;;;19.60;99.90;;;;;;5099026;28;20111;-64
2022/09/11 10:36:04;;;;;;;6.20;2.72;;;19.80;99.90;;;;;;5081679;28;20048;-65
2022/09/11 10:38:37;;;;;;;9.55;3.13;;;19.90;99.90;;;;;;5091983;28;20052;-65
2022/09/11 10:41:12;;;;;;;5.68;2.78;;;20.00;99.90;;;;;;5093325;28;20418;-65
2022/09/11 10:43:46;;;;;;;5.38;2.45;;;20.10;99.90;;;;;;5094402;28;20502;-65
2022/09/11 10:46:23;;;;;;;5.80;2.08;;;20.10;99.90;;;;;;5092353;28;20105;-65
2022/09/11 10:48:55;;;;;;;6.18;2.72;;;20.20;99.90;;;;;;5094903;28;20375;-64
2022/09/11 10:51:23;;;;;;;5.55;2.67;;;20.20;99.90;;;;;;5078195;28;20105;-64
2022/09/11 10:54:24;;;;;;;4.97;2.60;;;20.20;99.90;;;;;;5077437;28;20040;-63
2022/09/11 10:57:16;;;;;;;5.60;2.75;;;20.10;99.90;;;;;;5077456;28;20047;-63
2022/09/11 11:00:14;;;;;;;5.75;3.28;;;20.00;99.90;;;;;;5077793;28;20067;-64
2022/09/11 11:02:58;;;;;;;5.47;2.70;;;20.00;99.90;;;;;;5058884;28;20087;-64
2022/09/11 11:06:18;;;;;;;5.07;2.50;;;19.90;99.90;;;;;;5116139;28;20031;-63
2022/09/11 11:09:14;;;;;;;9.77;3.58;;;20.00;99.90;;;;;;4996580;28;20053;-64
2022/09/11 11:12:06;;;;;;;5.90;3.03;;;20.20;99.90;;;;;;5097803;28;20031;-64
2022/09/11 11:14:47;;;;;;;8.13;3.40;;;20.30;99.90;;;;;;5108401;28;20058;-64
2022/09/11 11:18:08;;;;;;;5.47;2.78;;;20.50;99.90;;;;;;5113269;28;20131;-63
2022/09/11 11:20:40;;;;;;;9.18;3.10;;;20.70;99.90;;;;;;4980479;28;20049;-69
2022/09/11 11:23:21;;;;;;;6.47;3.10;;;20.90;99.90;;;;;;5075197;28;21461;-66
2022/09/11 11:25:46;;;;;;;5.45;3.00;;;21.10;99.90;;;;;;5090233;28;20048;-66
2022/09/11 11:29:10;;;;;;;6.13;2.83;;;21.10;99.90;;;;;;5080672;28;20503;-65
2022/09/11 11:31:40;;;;;;;6.95;3.30;;;20.90;99.90;;;;;;5048924;28;20398;-65
2022/09/11 11:34:25;;;;;;;5.90;2.88;;;20.80;99.90;;;;;;5095018;28;20384;-65
2022/09/11 11:37:01;;;;;;;5.28;3.25;;;20.70;99.90;;;;;;5094278;28;20369;-65
2022/09/11 11:39:36;;;;;;;11.43;3.78;;;20.50;99.90;;;;;;5076946;28;20480;-65
2022/09/11 11:42:26;;;;;;;5.07;2.97;;;20.40;99.90;;;;;;5059515;28;20043;-66
2022/09/11 11:44:54;;;;;;;6.03;3.10;;;20.30;99.90;;;;;;5094300;28;20040;-66
2022/09/11 11:47:27;;;;;;;5.00;3.17;;;20.20;99.90;;;;;;5094766;28;20040;-65
2022/09/11 11:50:14;;;;;;;5.38;2.85;;;20.10;99.90;;;;;;5094493;28;20392;-65
2022/09/11 11:52:48;;;;;;;7.47;2.80;;;20.10;99.90;;;;;;5076728;28;20039;-65
2022/09/11 11:55:39;;;;;;;8.43;2.90;;;20.20;99.90;;;;;;5095164;28;20040;-65
2022/09/11 11:58:48;;;;;;;5.35;2.90;;;20.40;99.90;;;;;;5075541;28;20050;-65
2022/09/11 12:01:21;;;;;;;5.38;2.92;;;20.40;99.90;;;;;;5012696;28;20402;-64
2022/09/11 12:04:08;;;;;;;6.90;3.15;;;20.40;99.90;;;;;;5067799;28;20048;-64
2022/09/11 12:06:34;;;;;;;7.22;2.90;;;20.40;99.90;;;;;;5076016;28;20511;-65
2022/09/11 12:09:01;;;;;;;5.68;3.15;;;20.30;99.90;;;;;;5076133;28;20032;-64
2022/09/11 12:11:30;;;;;;;8.05;3.28;;;20.40;99.90;;;;;;5094603;28;20032;-64
2022/09/11 12:13:56;;;;;;;5.32;2.67;;;20.40;99.90;;;;;;5093415;28;20076;-64
2022/09/11 12:16:30;;;;;;;5.95;2.70;;;20.50;99.90;;;;;;5094514;28;20063;-65
2022/09/11 12:19:21;;;;;;;5.32;2.58;;;20.50;99.90;;;;;;5093096;28;20480;-65
2022/09/11 12:22:10;;;;;;;5.65;2.55;;;20.50;99.90;;;;;;5093687;28;20407;-64
2022/09/11 12:24:53;;;;;;;5.20;3.17;;;20.60;99.90;;;;;;5093935;28;20500;-65
2022/09/11 12:27:34;;;;;;;9.05;3.60;;;20.80;99.90;;;;;;5093900;28;20105;-65
2022/09/11 12:30:27;;;;;;;5.28;2.67;;;20.80;99.90;;;;;;5093846;28;20429;-65
2022/09/11 12:32:59;;;;;;;4.53;2.70;;;20.80;99.90;;;;;;5072026;28;20044;-65
2022/09/11 12:35:42;;;;;;;5.88;3.25;;;20.70;99.90;;;;;;5094658;28;20392;-65
2022/09/11 12:38:08;;;;;;;4.57;2.83;;;20.70;99.90;;;;;;5075205;28;20050;-65
2022/09/11 12:40:48;;;;;;;7.95;3.85;;;20.70;99.90;;;;;;5093523;28;20040;-65
2022/09/11 12:43:26;;;;;;;5.50;3.40;;;20.60;99.90;;;;;;5094173;28;20044;-65
2022/09/11 12:45:51;;;;;;;5.72;2.90;;;20.60;99.90;;;;;;5074953;28;20051;-65
2022/09/11 12:48:21;;;;;;;4.80;2.72;;;20.60;99.90;;;;;;5075318;28;20127;-65
2022/09/11 12:50:53;;;;;;;7.10;3.63;;;20.60;99.90;;;;;;5093562;28;20043;-65
2022/09/11 12:53:28;;;;;;;5.10;2.42;;;20.60;99.90;;;;;;5075602;28;20044;-65
2022/09/11 12:56:00;;;;;;;7.65;2.50;;;20.60;99.90;;;;;;5092606;28;20040;-65
2022/09/11 12:58:35;;;;;;;5.65;2.92;;;20.60;99.90;;;;;;5093789;28;20048;-65
2022/09/11 13:01:18;;;;;;;11.95;2.88;;;20.60;99.90;;;;;;5092540;28;20097;-65